sensor_id;sensor_type;location;lat;lon;timestamp;temperature;humidity
54431;DHT22;40342;52.998;5.862;2023-11-19T00:00:20;11.60;99.90
54431;DHT22;40342;52.998;5.862;2023-11-19T00:02:45;11.60;99.90
54431;DHT22;40342;52.998;5.862;2023-11-19T00:05:13;11.60;99.90
54431;DHT22;40342;52.998;5.862;2023-11-19T00:07:39;11.70;99.90
54431;DHT22;40342;52.998;5.862;2023-11-19T00:10:12;11.60;99.90
54431;DHT22;40342;52.998;5.862;2023-11-19T00:12:42;11.70;99.90
54431;DHT22;40342;52.998;5.862;2023-11-19T00:15:08;11.70;99.90
54431;DHT22;40342;52.998;5.862;2023-11-19T00:17:37;11.70;99.90
54431;DHT22;40342;52.998;5.862;2023-11-19T00:20:04;11.70;99.90
54431;DHT22;40342;52.998;5.862;2023-11-19T00:22:31;11.70;99.90
54431;DHT22;40342;52.998;5.862;2023-11-19T00:24:57;11.80;99.90
54431;DHT22;40342;52.998;5.862;2023-11-19T00:27:22;11.70;99.90
54431;DHT22;40342;52.998;5.862;2023-11-19T00:29:48;11.70;99.90
54431;DHT22;40342;52.998;5.862;2023-11-19T00:32:14;11.70;99.90
54431;DHT22;40342;52.998;5.862;2023-11-19T00:34:40;11.70;99.90
54431;DHT22;40342;52.998;5.862;2023-11-19T00:37:08;11.60;99.90
54431;DHT22;40342;52.998;5.862;2023-11-19T00:39:34;11.60;99.90
54431;DHT22;40342;52.998;5.862;2023-11-19T00:41:59;11.60;99.90
54431;DHT22;40342;52.998;5.862;2023-11-19T00:44:25;11.60;99.90
54431;DHT22;40342;52.998;5.862;2023-11-19T00:46:50;11.60;99.90
54431;DHT22;40342;52.998;5.862;2023-11-19T00:49:16;11.60;99.90
54431;DHT22;40342;52.998;5.862;2023-11-19T00:51:41;11.60;99.90
54431;DHT22;40342;52.998;5.862;2023-11-19T00:54:07;11.60;99.90
54431;DHT22;40342;52.998;5.862;2023-11-19T00:56:32;11.60;99.90
54431;DHT22;40342;52.998;5.862;2023-11-19T00:58:58;11.50;99.90
54431;DHT22;40342;52.998;5.862;2023-11-19T01:01:25;11.50;99.90
54431;DHT22;40342;52.998;5.862;2023-11-19T01:03:51;11.50;99.90
54431;DHT22;40342;52.998;5.862;2023-11-19T01:06:30;11.40;99.90
54431;DHT22;40342;52.998;5.862;2023-11-19T01:08:56;11.40;99.90
54431;DHT22;40342;52.998;5.862;2023-11-19T01:11:25;11.40;99.90
54431;DHT22;40342;52.998;5.862;2023-11-19T01:13:51;11.40;99.90
54431;DHT22;40342;52.998;5.862;2023-11-19T01:16:17;11.40;99.90
54431;DHT22;40342;52.998;5.862;2023-11-19T01:18:43;11.40;99.90
54431;DHT22;40342;52.998;5.862;2023-11-19T01:21:08;11.40;99.90
54431;DHT22;40342;52.998;5.862;2023-11-19T01:23:34;11.40;99.90
54431;DHT22;40342;52.998;5.862;2023-11-19T01:26:00;11.40;99.90
54431;DHT22;40342;52.998;5.862;2023-11-19T01:28:26;11.50;99.90
54431;DHT22;40342;52.998;5.862;2023-11-19T01:30:51;11.50;99.90
54431;DHT22;40342;52.998;5.862;2023-11-19T01:33:17;11.60;99.90
54431;DHT22;40342;52.998;5.862;2023-11-19T01:35:42;11.60;99.90
54431;DHT22;40342;52.998;5.862;2023-11-19T01:38:08;11.70;99.90
54431;DHT22;40342;52.998;5.862;2023-11-19T01:40:34;11.70;99.90
54431;DHT22;40342;52.998;5.862;2023-11-19T01:43:02;11.60;99.90
54431;DHT22;40342;52.998;5.862;2023-11-19T01:45:29;11.60;99.90
54431;DHT22;40342;52.998;5.862;2023-11-19T01:47:56;11.60;99.90
54431;DHT22;40342;52.998;5.862;2023-11-19T01:50:23;11.50;99.90
54431;DHT22;40342;52.998;5.862;2023-11-19T01:52:54;11.50;99.90
54431;DHT22;40342;52.998;5.862;2023-11-19T01:55:21;11.50;99.90
54431;DHT22;40342;52.998;5.862;2023-11-19T01:57:49;11.50;99.90
54431;DHT22;40342;52.998;5.862;2023-11-19T02:00:15;11.40;99.90
54431;DHT22;40342;52.998;5.862;2023-11-19T02:02:43;11.40;99.90
54431;DHT22;40342;52.998;5.862;2023-11-19T02:05:10;11.30;99.90
54431;DHT22;40342;52.998;5.862;2023-11-19T02:07:36;11.40;99.90
54431;DHT22;40342;52.998;5.862;2023-11-19T02:10:02;11.40;99.90
54431;DHT22;40342;52.998;5.862;2023-11-19T02:12:31;11.40;99.90
54431;DHT22;40342;52.998;5.862;2023-11-19T02:14:59;11.40;99.90
54431;DHT22;40342;52.998;5.862;2023-11-19T02:19:52;11.40;99.90
54431;DHT22;40342;52.998;5.862;2023-11-19T02:22:18;11.40;99.90
54431;DHT22;40342;52.998;5.862;2023-11-19T02:24:44;11.40;99.90
54431;DHT22;40342;52.998;5.862;2023-11-19T02:27:20;11.40;99.90
54431;DHT22;40342;52.998;5.862;2023-11-19T02:29:51;11.40;99.90
54431;DHT22;40342;52.998;5.862;2023-11-19T02:32:17;11.40;99.90
54431;DHT22;40342;52.998;5.862;2023-11-19T02:34:42;11.40;99.90
54431;DHT22;40342;52.998;5.862;2023-11-19T02:37:08;11.40;99.90
54431;DHT22;40342;52.998;5.862;2023-11-19T02:39:33;11.40;99.90
54431;DHT22;40342;52.998;5.862;2023-11-19T02:41:59;11.40;99.90
54431;DHT22;40342;52.998;5.862;2023-11-19T02:44:25;11.50;99.90
54431;DHT22;40342;52.998;5.862;2023-11-19T02:46:53;11.50;99.90
54431;DHT22;40342;52.998;5.862;2023-11-19T02:49:19;11.50;99.90
54431;DHT22;40342;52.998;5.862;2023-11-19T02:51:47;11.50;99.90
54431;DHT22;40342;52.998;5.862;2023-11-19T02:54:14;11.50;99.90
54431;DHT22;40342;52.998;5.862;2023-11-19T02:56:42;11.60;99.90
54431;DHT22;40342;52.998;5.862;2023-11-19T02:59:08;11.60;99.90
54431;DHT22;40342;52.998;5.862;2023-11-19T03:01:43;11.60;99.90
54431;DHT22;40342;52.998;5.862;2023-11-19T03:04:14;11.60;99.90
54431;DHT22;40342;52.998;5.862;2023-11-19T03:06:42;11.60;99.90
54431;DHT22;40342;52.998;5.862;2023-11-19T03:09:07;11.60;99.90
54431;DHT22;40342;52.998;5.862;2023-11-19T03:11:36;11.60;99.90
54431;DHT22;40342;52.998;5.862;2023-11-19T03:14:01;11.60;99.90
54431;DHT22;40342;52.998;5.862;2023-11-19T03:16:28;11.60;99.90
54431;DHT22;40342;52.998;5.862;2023-11-19T03:18:54;11.60;99.90
54431;DHT22;40342;52.998;5.862;2023-11-19T03:21:27;11.60;99.90
54431;DHT22;40342;52.998;5.862;2023-11-19T03:23:53;11.60;99.90
54431;DHT22;40342;52.998;5.862;2023-11-19T03:26:18;11.50;99.90
54431;DHT22;40342;52.998;5.862;2023-11-19T03:28:44;11.50;99.90
54431;DHT22;40342;52.998;5.862;2023-11-19T03:31:09;11.50;99.90
54431;DHT22;40342;52.998;5.862;2023-11-19T03:33:35;11.50;99.90
54431;DHT22;40342;52.998;5.862;2023-11-19T03:36:01;11.50;99.90
54431;DHT22;40342;52.998;5.862;2023-11-19T03:38:27;11.50;99.90
54431;DHT22;40342;52.998;5.862;2023-11-19T03:40:52;11.60;99.90
54431;DHT22;40342;52.998;5.862;2023-11-19T03:43:18;11.60;99.90
54431;DHT22;40342;52.998;5.862;2023-11-19T03:45:44;11.60;99.90
54431;DHT22;40342;52.998;5.862;2023-11-19T03:48:10;11.60;99.90
54431;DHT22;40342;52.998;5.862;2023-11-19T03:50:35;11.60;99.90
54431;DHT22;40342;52.998;5.862;2023-11-19T03:53:01;11.60;99.90
54431;DHT22;40342;52.998;5.862;2023-11-19T03:55:28;11.60;99.90
54431;DHT22;40342;52.998;5.862;2023-11-19T03:57:54;11.60;99.90
54431;DHT22;40342;52.998;5.862;2023-11-19T04:00:20;11.60;99.90
54431;DHT22;40342;52.998;5.862;2023-11-19T04:02:46;11.60;99.90
54431;DHT22;40342;52.998;5.862;2023-11-19T04:05:12;11.60;99.90
54431;DHT22;40342;52.998;5.862;2023-11-19T04:07:38;11.60;99.90
54431;DHT22;40342;52.998;5.862;2023-11-19T04:10:04;11.50;99.90
54431;DHT22;40342;52.998;5.862;2023-11-19T04:12:29;11.60;99.90
54431;DHT22;40342;52.998;5.862;2023-11-19T04:14:55;11.60;99.90
54431;DHT22;40342;52.998;5.862;2023-11-19T04:17:21;11.60;99.90
54431;DHT22;40342;52.998;5.862;2023-11-19T04:19:48;11.60;99.90
54431;DHT22;40342;52.998;5.862;2023-11-19T04:22:14;11.60;99.90
54431;DHT22;40342;52.998;5.862;2023-11-19T04:24:39;11.50;99.90
54431;DHT22;40342;52.998;5.862;2023-11-19T04:27:06;11.50;99.90
54431;DHT22;40342;52.998;5.862;2023-11-19T04:29:31;11.50;99.90
54431;DHT22;40342;52.998;5.862;2023-11-19T04:31:57;11.50;99.90
54431;DHT22;40342;52.998;5.862;2023-11-19T04:34:24;11.50;99.90
54431;DHT22;40342;52.998;5.862;2023-11-19T04:36:49;11.50;99.90
54431;DHT22;40342;52.998;5.862;2023-11-19T04:39:15;11.50;99.90
54431;DHT22;40342;52.998;5.862;2023-11-19T04:41:51;11.60;99.90
54431;DHT22;40342;52.998;5.862;2023-11-19T04:44:20;11.60;99.90
54431;DHT22;40342;52.998;5.862;2023-11-19T04:46:46;11.60;99.90
54431;DHT22;40342;52.998;5.862;2023-11-19T04:49:12;11.50;99.90
54431;DHT22;40342;52.998;5.862;2023-11-19T04:51:44;11.50;99.90
54431;DHT22;40342;52.998;5.862;2023-11-19T04:54:12;11.50;99.90
54431;DHT22;40342;52.998;5.862;2023-11-19T04:56:38;11.50;99.90
54431;DHT22;40342;52.998;5.862;2023-11-19T04:59:04;11.50;99.90
54431;DHT22;40342;52.998;5.862;2023-11-19T05:01:34;11.50;99.90
54431;DHT22;40342;52.998;5.862;2023-11-19T05:04:00;11.40;99.90
54431;DHT22;40342;52.998;5.862;2023-11-19T05:06:29;11.40;99.90
54431;DHT22;40342;52.998;5.862;2023-11-19T05:08:56;11.40;99.90
54431;DHT22;40342;52.998;5.862;2023-11-19T05:11:22;11.40;99.90
54431;DHT22;40342;52.998;5.862;2023-11-19T05:13:47;11.40;99.90
54431;DHT22;40342;52.998;5.862;2023-11-19T05:16:13;11.40;99.90
54431;DHT22;40342;52.998;5.862;2023-11-19T05:18:42;11.40;99.90
54431;DHT22;40342;52.998;5.862;2023-11-19T05:21:08;11.30;99.90
54431;DHT22;40342;52.998;5.862;2023-11-19T05:23:34;11.30;99.90
54431;DHT22;40342;52.998;5.862;2023-11-19T05:26:02;11.30;99.90
54431;DHT22;40342;52.998;5.862;2023-11-19T05:28:28;11.30;99.90
54431;DHT22;40342;52.998;5.862;2023-11-19T05:30:54;11.30;99.90
54431;DHT22;40342;52.998;5.862;2023-11-19T05:33:20;11.20;99.90
54431;DHT22;40342;52.998;5.862;2023-11-19T05:35:46;11.20;99.90
54431;DHT22;40342;52.998;5.862;2023-11-19T05:38:12;11.20;99.90
54431;DHT22;40342;52.998;5.862;2023-11-19T05:40:38;11.20;99.90
54431;DHT22;40342;52.998;5.862;2023-11-19T05:43:04;11.20;99.90
54431;DHT22;40342;52.998;5.862;2023-11-19T05:45:30;11.10;99.90
54431;DHT22;40342;52.998;5.862;2023-11-19T05:47:56;11.10;99.90
54431;DHT22;40342;52.998;5.862;2023-11-19T05:50:22;11.10;99.90
54431;DHT22;40342;52.998;5.862;2023-11-19T05:52:48;11.10;99.90
54431;DHT22;40342;52.998;5.862;2023-11-19T05:55:13;11.00;99.90
54431;DHT22;40342;52.998;5.862;2023-11-19T05:57:39;11.00;99.90
54431;DHT22;40342;52.998;5.862;2023-11-19T06:00:06;11.00;99.90
54431;DHT22;40342;52.998;5.862;2023-11-19T06:02:34;11.00;99.90
54431;DHT22;40342;52.998;5.862;2023-11-19T06:04:59;11.00;99.90
54431;DHT22;40342;52.998;5.862;2023-11-19T06:07:25;11.00;99.90
54431;DHT22;40342;52.998;5.862;2023-11-19T06:09:51;11.00;99.90
54431;DHT22;40342;52.998;5.862;2023-11-19T06:12:17;11.00;99.90
54431;DHT22;40342;52.998;5.862;2023-11-19T06:14:42;11.00;99.90
54431;DHT22;40342;52.998;5.862;2023-11-19T06:17:08;11.00;99.90
54431;DHT22;40342;52.998;5.862;2023-11-19T06:19:36;11.10;99.90
54431;DHT22;40342;52.998;5.862;2023-11-19T06:22:01;11.00;99.90
54431;DHT22;40342;52.998;5.862;2023-11-19T06:24:27;11.00;99.90
54431;DHT22;40342;52.998;5.862;2023-11-19T06:26:53;11.00;99.90
54431;DHT22;40342;52.998;5.862;2023-11-19T06:29:19;11.00;99.90
54431;DHT22;40342;52.998;5.862;2023-11-19T06:31:45;10.90;99.90
54431;DHT22;40342;52.998;5.862;2023-11-19T06:34:11;10.90;99.90
54431;DHT22;40342;52.998;5.862;2023-11-19T06:36:36;10.90;99.90
54431;DHT22;40342;52.998;5.862;2023-11-19T06:39:02;10.90;99.90
54431;DHT22;40342;52.998;5.862;2023-11-19T06:41:28;10.80;99.90
54431;DHT22;40342;52.998;5.862;2023-11-19T06:43:54;10.80;99.90
54431;DHT22;40342;52.998;5.862;2023-11-19T06:46:20;10.80;99.90
54431;DHT22;40342;52.998;5.862;2023-11-19T06:48:46;10.80;99.90
54431;DHT22;40342;52.998;5.862;2023-11-19T06:51:12;10.80;99.90
54431;DHT22;40342;52.998;5.862;2023-11-19T06:53:38;10.80;99.90
54431;DHT22;40342;52.998;5.862;2023-11-19T06:56:21;10.80;99.90
54431;DHT22;40342;52.998;5.862;2023-11-19T06:58:47;10.80;99.90
54431;DHT22;40342;52.998;5.862;2023-11-19T07:01:17;10.80;99.90
54431;DHT22;40342;52.998;5.862;2023-11-19T07:03:46;10.80;99.90
54431;DHT22;40342;52.998;5.862;2023-11-19T07:06:12;10.80;99.90
54431;DHT22;40342;52.998;5.862;2023-11-19T07:08:44;10.80;99.90
54431;DHT22;40342;52.998;5.862;2023-11-19T07:11:13;10.80;99.90
54431;DHT22;40342;52.998;5.862;2023-11-19T07:13:40;10.80;99.90
54431;DHT22;40342;52.998;5.862;2023-11-19T07:16:07;10.80;99.90
54431;DHT22;40342;52.998;5.862;2023-11-19T07:18:35;10.80;99.90
54431;DHT22;40342;52.998;5.862;2023-11-19T07:21:01;10.70;99.90
54431;DHT22;40342;52.998;5.862;2023-11-19T07:23:28;10.70;99.90
54431;DHT22;40342;52.998;5.862;2023-11-19T07:25:53;10.70;99.90
54431;DHT22;40342;52.998;5.862;2023-11-19T07:28:19;10.70;99.90
54431;DHT22;40342;52.998;5.862;2023-11-19T07:30:45;10.70;99.90
54431;DHT22;40342;52.998;5.862;2023-11-19T07:33:10;10.70;99.90
54431;DHT22;40342;52.998;5.862;2023-11-19T07:35:37;10.70;99.90
54431;DHT22;40342;52.998;5.862;2023-11-19T07:38:02;10.70;99.90
54431;DHT22;40342;52.998;5.862;2023-11-19T07:40:28;10.80;99.90
54431;DHT22;40342;52.998;5.862;2023-11-19T07:42:54;10.80;99.90
54431;DHT22;40342;52.998;5.862;2023-11-19T07:45:19;10.80;99.90
54431;DHT22;40342;52.998;5.862;2023-11-19T07:47:45;10.80;99.90
54431;DHT22;40342;52.998;5.862;2023-11-19T07:50:11;10.80;99.90
54431;DHT22;40342;52.998;5.862;2023-11-19T07:52:38;10.90;99.90
54431;DHT22;40342;52.998;5.862;2023-11-19T07:55:04;10.90;99.90
54431;DHT22;40342;52.998;5.862;2023-11-19T07:57:30;10.90;99.90
54431;DHT22;40342;52.998;5.862;2023-11-19T07:59:57;10.90;99.90
54431;DHT22;40342;52.998;5.862;2023-11-19T08:02:22;11.00;99.90
54431;DHT22;40342;52.998;5.862;2023-11-19T08:04:49;10.90;99.90
54431;DHT22;40342;52.998;5.862;2023-11-19T08:07:21;11.00;99.90
54431;DHT22;40342;52.998;5.862;2023-11-19T08:09:47;11.00;99.90
54431;DHT22;40342;52.998;5.862;2023-11-19T08:12:13;11.00;99.90
54431;DHT22;40342;52.998;5.862;2023-11-19T08:14:41;11.00;99.90
54431;DHT22;40342;52.998;5.862;2023-11-19T08:17:06;11.00;99.90
54431;DHT22;40342;52.998;5.862;2023-11-19T08:19:32;11.00;99.90
54431;DHT22;40342;52.998;5.862;2023-11-19T08:21:58;11.00;99.90
54431;DHT22;40342;52.998;5.862;2023-11-19T08:24:23;11.10;99.90
54431;DHT22;40342;52.998;5.862;2023-11-19T08:26:49;11.10;99.90
54431;DHT22;40342;52.998;5.862;2023-11-19T08:29:14;11.10;99.90
54431;DHT22;40342;52.998;5.862;2023-11-19T08:31:40;11.10;99.90
54431;DHT22;40342;52.998;5.862;2023-11-19T08:34:06;11.20;99.90
54431;DHT22;40342;52.998;5.862;2023-11-19T08:36:34;11.20;99.90
54431;DHT22;40342;52.998;5.862;2023-11-19T08:39:00;11.30;99.90
54431;DHT22;40342;52.998;5.862;2023-11-19T08:41:25;11.30;99.90
54431;DHT22;40342;52.998;5.862;2023-11-19T08:43:51;11.30;99.90
54431;DHT22;40342;52.998;5.862;2023-11-19T08:46:17;11.30;99.90
54431;DHT22;40342;52.998;5.862;2023-11-19T08:48:42;11.30;99.90
54431;DHT22;40342;52.998;5.862;2023-11-19T08:51:08;11.40;99.90
54431;DHT22;40342;52.998;5.862;2023-11-19T08:53:34;11.40;99.90
54431;DHT22;40342;52.998;5.862;2023-11-19T08:55:59;11.40;99.90
54431;DHT22;40342;52.998;5.862;2023-11-19T08:58:26;11.40;99.90
54431;DHT22;40342;52.998;5.862;2023-11-19T09:00:51;11.40;99.90
54431;DHT22;40342;52.998;5.862;2023-11-19T09:03:17;11.50;99.90
54431;DHT22;40342;52.998;5.862;2023-11-19T09:05:42;11.50;99.90
54431;DHT22;40342;52.998;5.862;2023-11-19T09:08:08;11.50;99.90
54431;DHT22;40342;52.998;5.862;2023-11-19T09:10:34;11.50;99.90
54431;DHT22;40342;52.998;5.862;2023-11-19T09:12:59;11.60;99.90
54431;DHT22;40342;52.998;5.862;2023-11-19T09:15:25;11.50;99.90
54431;DHT22;40342;52.998;5.862;2023-11-19T09:17:50;11.50;99.90
54431;DHT22;40342;52.998;5.862;2023-11-19T09:20:16;11.50;99.90
54431;DHT22;40342;52.998;5.862;2023-11-19T09:22:42;11.50;99.90
54431;DHT22;40342;52.998;5.862;2023-11-19T09:25:08;11.50;99.90
54431;DHT22;40342;52.998;5.862;2023-11-19T09:27:34;11.50;99.90
54431;DHT22;40342;52.998;5.862;2023-11-19T09:30:00;11.50;99.90
54431;DHT22;40342;52.998;5.862;2023-11-19T09:32:25;11.50;99.90
54431;DHT22;40342;52.998;5.862;2023-11-19T09:34:51;11.40;99.90
54431;DHT22;40342;52.998;5.862;2023-11-19T09:37:17;11.50;99.90
54431;DHT22;40342;52.998;5.862;2023-11-19T09:39:42;11.60;99.90
54431;DHT22;40342;52.998;5.862;2023-11-19T09:42:09;11.50;99.90
54431;DHT22;40342;52.998;5.862;2023-11-19T09:44:40;11.50;99.90
54431;DHT22;40342;52.998;5.862;2023-11-19T09:47:08;11.50;99.90
54431;DHT22;40342;52.998;5.862;2023-11-19T09:49:35;11.60;99.90
54431;DHT22;40342;52.998;5.862;2023-11-19T09:52:02;11.70;99.90
54431;DHT22;40342;52.998;5.862;2023-11-19T09:54:28;11.70;99.90
54431;DHT22;40342;52.998;5.862;2023-11-19T09:56:55;11.60;99.90
54431;DHT22;40342;52.998;5.862;2023-11-19T09:59:26;11.70;99.90
54431;DHT22;40342;52.998;5.862;2023-11-19T10:01:52;11.70;99.90
54431;DHT22;40342;52.998;5.862;2023-11-19T10:04:18;11.70;99.90
54431;DHT22;40342;52.998;5.862;2023-11-19T10:06:44;11.70;99.90
54431;DHT22;40342;52.998;5.862;2023-11-19T10:09:12;11.80;99.90
54431;DHT22;40342;52.998;5.862;2023-11-19T10:11:38;11.70;99.90
54431;DHT22;40342;52.998;5.862;2023-11-19T10:14:03;11.70;99.90
54431;DHT22;40342;52.998;5.862;2023-11-19T10:16:30;11.70;99.90
54431;DHT22;40342;52.998;5.862;2023-11-19T10:18:56;11.70;99.90
54431;DHT22;40342;52.998;5.862;2023-11-19T10:21:22;11.70;99.90
54431;DHT22;40342;52.998;5.862;2023-11-19T10:23:52;11.70;99.90
54431;DHT22;40342;52.998;5.862;2023-11-19T10:26:19;11.70;99.90
54431;DHT22;40342;52.998;5.862;2023-11-19T10:28:46;11.70;99.90
54431;DHT22;40342;52.998;5.862;2023-11-19T10:31:16;11.70;99.90
54431;DHT22;40342;52.998;5.862;2023-11-19T10:33:43;11.70;99.90
54431;DHT22;40342;52.998;5.862;2023-11-19T10:36:11;11.80;99.90
54431;DHT22;40342;52.998;5.862;2023-11-19T10:38:38;11.80;99.90
54431;DHT22;40342;52.998;5.862;2023-11-19T10:41:04;11.80;99.90
54431;DHT22;40342;52.998;5.862;2023-11-19T10:43:30;11.80;99.90
54431;DHT22;40342;52.998;5.862;2023-11-19T10:46:13;11.90;99.90
54431;DHT22;40342;52.998;5.862;2023-11-19T10:48:39;11.90;99.90
54431;DHT22;40342;52.998;5.862;2023-11-19T10:51:06;12.00;99.90
54431;DHT22;40342;52.998;5.862;2023-11-19T10:53:37;12.00;99.90
54431;DHT22;40342;52.998;5.862;2023-11-19T10:56:06;12.00;99.90
54431;DHT22;40342;52.998;5.862;2023-11-19T10:58:37;12.00;99.90
54431;DHT22;40342;52.998;5.862;2023-11-19T11:01:20;12.10;99.90
54431;DHT22;40342;52.998;5.862;2023-11-19T11:03:50;12.00;99.90
54431;DHT22;40342;52.998;5.862;2023-11-19T11:06:17;12.00;99.90
54431;DHT22;40342;52.998;5.862;2023-11-19T11:08:44;12.00;99.90
54431;DHT22;40342;52.998;5.862;2023-11-19T11:11:13;12.10;99.90
54431;DHT22;40342;52.998;5.862;2023-11-19T11:13:42;12.10;99.90
54431;DHT22;40342;52.998;5.862;2023-11-19T11:16:08;12.10;99.90
54431;DHT22;40342;52.998;5.862;2023-11-19T11:18:34;12.10;99.90
54431;DHT22;40342;52.998;5.862;2023-11-19T11:21:03;12.10;99.90
54431;DHT22;40342;52.998;5.862;2023-11-19T11:26:42;12.10;99.90
54431;DHT22;40342;52.998;5.862;2023-11-19T11:29:17;12.00;99.90
54431;DHT22;40342;52.998;5.862;2023-11-19T11:32:21;12.10;99.90
54431;DHT22;40342;52.998;5.862;2023-11-19T11:35:03;12.10;99.90
54431;DHT22;40342;52.998;5.862;2023-11-19T11:37:38;12.10;99.90
54431;DHT22;40342;52.998;5.862;2023-11-19T11:40:05;12.10;99.90
54431;DHT22;40342;52.998;5.862;2023-11-19T11:42:36;12.10;99.90
54431;DHT22;40342;52.998;5.862;2023-11-19T11:50:09;12.10;99.90
54431;DHT22;40342;52.998;5.862;2023-11-19T11:55:25;12.20;99.90
54431;DHT22;40342;52.998;5.862;2023-11-19T11:57:51;12.20;99.90
54431;DHT22;40342;52.998;5.862;2023-11-19T12:02:56;12.20;99.90
54431;DHT22;40342;52.998;5.862;2023-11-19T12:05:22;12.20;99.90
54431;DHT22;40342;52.998;5.862;2023-11-19T12:08:02;12.30;99.90
54431;DHT22;40342;52.998;5.862;2023-11-19T12:10:30;12.40;99.90
54431;DHT22;40342;52.998;5.862;2023-11-19T12:13:00;12.40;99.90
54431;DHT22;40342;52.998;5.862;2023-11-19T12:15:26;12.40;99.90
54431;DHT22;40342;52.998;5.862;2023-11-19T12:17:53;12.40;99.90
54431;DHT22;40342;52.998;5.862;2023-11-19T12:20:33;12.40;99.90
54431;DHT22;40342;52.998;5.862;2023-11-19T12:23:04;12.50;99.90
54431;DHT22;40342;52.998;5.862;2023-11-19T12:25:34;12.60;99.90
54431;DHT22;40342;52.998;5.862;2023-11-19T12:28:00;12.60;99.90
54431;DHT22;40342;52.998;5.862;2023-11-19T12:30:29;12.60;99.90
54431;DHT22;40342;52.998;5.862;2023-11-19T12:32:55;12.50;99.90
54431;DHT22;40342;52.998;5.862;2023-11-19T12:35:21;12.50;99.90
54431;DHT22;40342;52.998;5.862;2023-11-19T12:37:48;12.50;99.90
54431;DHT22;40342;52.998;5.862;2023-11-19T12:40:22;12.40;99.90
54431;DHT22;40342;52.998;5.862;2023-11-19T12:42:49;12.40;99.90
54431;DHT22;40342;52.998;5.862;2023-11-19T12:45:15;12.30;99.90
54431;DHT22;40342;52.998;5.862;2023-11-19T12:47:44;12.30;99.90
54431;DHT22;40342;52.998;5.862;2023-11-19T12:50:13;12.20;99.90
54431;DHT22;40342;52.998;5.862;2023-11-19T12:52:39;12.20;99.90
54431;DHT22;40342;52.998;5.862;2023-11-19T12:55:23;12.20;99.90
54431;DHT22;40342;52.998;5.862;2023-11-19T12:57:49;12.20;99.90
54431;DHT22;40342;52.998;5.862;2023-11-19T13:00:19;12.10;99.90
54431;DHT22;40342;52.998;5.862;2023-11-19T13:08:04;12.10;99.90
54431;DHT22;40342;52.998;5.862;2023-11-19T13:10:31;12.10;99.90
54431;DHT22;40342;52.998;5.862;2023-11-19T13:13:02;12.10;99.90
54431;DHT22;40342;52.998;5.862;2023-11-19T13:15:28;12.10;99.90
54431;DHT22;40342;52.998;5.862;2023-11-19T13:17:54;12.10;99.90
54431;DHT22;40342;52.998;5.862;2023-11-19T13:20:19;12.10;99.90
54431;DHT22;40342;52.998;5.862;2023-11-19T13:23:03;12.10;99.90
54431;DHT22;40342;52.998;5.862;2023-11-19T13:25:29;12.10;99.90
54431;DHT22;40342;52.998;5.862;2023-11-19T13:27:55;12.10;99.90
54431;DHT22;40342;52.998;5.862;2023-11-19T13:30:22;12.10;99.90
54431;DHT22;40342;52.998;5.862;2023-11-19T13:32:48;12.10;99.90
54431;DHT22;40342;52.998;5.862;2023-11-19T13:35:15;12.10;99.90
54431;DHT22;40342;52.998;5.862;2023-11-19T13:37:41;12.00;99.90
54431;DHT22;40342;52.998;5.862;2023-11-19T13:40:07;12.00;99.90
54431;DHT22;40342;52.998;5.862;2023-11-19T13:42:37;12.00;99.90
54431;DHT22;40342;52.998;5.862;2023-11-19T13:45:10;12.00;99.90
54431;DHT22;40342;52.998;5.862;2023-11-19T13:47:41;12.00;99.90
54431;DHT22;40342;52.998;5.862;2023-11-19T13:50:14;12.00;99.90
54431;DHT22;40342;52.998;5.862;2023-11-19T13:52:42;12.00;99.90
54431;DHT22;40342;52.998;5.862;2023-11-19T13:55:09;11.90;99.90
54431;DHT22;40342;52.998;5.862;2023-11-19T13:57:36;11.90;99.90
54431;DHT22;40342;52.998;5.862;2023-11-19T14:00:03;11.90;99.90
54431;DHT22;40342;52.998;5.862;2023-11-19T14:02:35;11.90;99.90
54431;DHT22;40342;52.998;5.862;2023-11-19T14:05:01;11.90;99.90
54431;DHT22;40342;52.998;5.862;2023-11-19T14:07:27;11.90;99.90
54431;DHT22;40342;52.998;5.862;2023-11-19T14:09:53;11.90;99.90
54431;DHT22;40342;52.998;5.862;2023-11-19T14:12:19;11.80;99.90
54431;DHT22;40342;52.998;5.862;2023-11-19T14:14:45;11.80;99.90
54431;DHT22;40342;52.998;5.862;2023-11-19T14:17:10;11.80;99.90
54431;DHT22;40342;52.998;5.862;2023-11-19T14:19:36;11.80;99.90
54431;DHT22;40342;52.998;5.862;2023-11-19T14:22:03;11.80;99.90
54431;DHT22;40342;52.998;5.862;2023-11-19T14:24:29;11.80;99.90
54431;DHT22;40342;52.998;5.862;2023-11-19T14:26:55;11.80;99.90
54431;DHT22;40342;52.998;5.862;2023-11-19T14:29:23;11.80;99.90
54431;DHT22;40342;52.998;5.862;2023-11-19T14:31:49;11.80;99.90
54431;DHT22;40342;52.998;5.862;2023-11-19T14:34:14;11.70;99.90
54431;DHT22;40342;52.998;5.862;2023-11-19T14:36:40;11.80;99.90
54431;DHT22;40342;52.998;5.862;2023-11-19T14:39:05;11.80;99.90
54431;DHT22;40342;52.998;5.862;2023-11-19T14:41:32;11.80;99.90
54431;DHT22;40342;52.998;5.862;2023-11-19T14:43:58;11.70;99.90
54431;DHT22;40342;52.998;5.862;2023-11-19T14:46:23;11.70;99.90
54431;DHT22;40342;52.998;5.862;2023-11-19T14:48:49;11.70;99.90
54431;DHT22;40342;52.998;5.862;2023-11-19T14:51:14;11.60;99.90
54431;DHT22;40342;52.998;5.862;2023-11-19T14:53:40;11.60;99.90
54431;DHT22;40342;52.998;5.862;2023-11-19T14:56:09;11.60;99.90
54431;DHT22;40342;52.998;5.862;2023-11-19T14:58:35;11.60;99.90
54431;DHT22;40342;52.998;5.862;2023-11-19T15:01:00;11.50;99.90
54431;DHT22;40342;52.998;5.862;2023-11-19T15:03:30;11.50;99.90
54431;DHT22;40342;52.998;5.862;2023-11-19T15:05:56;11.40;99.90
54431;DHT22;40342;52.998;5.862;2023-11-19T15:08:22;11.40;99.90
54431;DHT22;40342;52.998;5.862;2023-11-19T15:10:47;11.30;99.90
54431;DHT22;40342;52.998;5.862;2023-11-19T15:13:13;11.30;99.90
54431;DHT22;40342;52.998;5.862;2023-11-19T15:15:39;11.20;99.90
54431;DHT22;40342;52.998;5.862;2023-11-19T15:18:05;11.30;99.90
54431;DHT22;40342;52.998;5.862;2023-11-19T15:20:30;11.20;99.90
54431;DHT22;40342;52.998;5.862;2023-11-19T15:22:57;11.20;99.90
54431;DHT22;40342;52.998;5.862;2023-11-19T15:25:23;11.20;99.90
54431;DHT22;40342;52.998;5.862;2023-11-19T15:27:49;11.20;99.90
54431;DHT22;40342;52.998;5.862;2023-11-19T15:30:15;11.20;99.90
54431;DHT22;40342;52.998;5.862;2023-11-19T15:32:41;11.10;99.90
54431;DHT22;40342;52.998;5.862;2023-11-19T15:35:08;11.10;99.90
54431;DHT22;40342;52.998;5.862;2023-11-19T15:37:35;11.20;99.90
54431;DHT22;40342;52.998;5.862;2023-11-19T15:40:01;11.20;99.90
54431;DHT22;40342;52.998;5.862;2023-11-19T15:42:29;11.20;99.90
54431;DHT22;40342;52.998;5.862;2023-11-19T15:44:55;11.20;99.90
54431;DHT22;40342;52.998;5.862;2023-11-19T15:47:20;11.20;99.90
54431;DHT22;40342;52.998;5.862;2023-11-19T15:49:47;11.20;99.90